sensor_id;sensor_type;location;lat;lon;timestamp;P1;durP1;ratioP1;P2;durP2;ratioP2
21564;SDS011;10943;48.738;9.320;2022-09-12T00:01:20;11.27;;;8.85;;
21564;SDS011;10943;48.738;9.320;2022-09-12T00:03:52;10.90;;;9.05;;
21564;SDS011;10943;48.738;9.320;2022-09-12T00:06:26;13.68;;;8.68;;
21564;SDS011;10943;48.738;9.320;2022-09-12T00:09:00;12.60;;;9.48;;
21564;SDS011;10943;48.738;9.320;2022-09-12T00:11:35;11.65;;;9.32;;
21564;SDS011;10943;48.738;9.320;2022-09-12T00:14:06;13.00;;;9.70;;
21564;SDS011;10943;48.738;9.320;2022-09-12T00:16:36;12.85;;;9.38;;
21564;SDS011;10943;48.738;9.320;2022-09-12T00:19:06;11.88;;;9.23;;
21564;SDS011;10943;48.738;9.320;2022-09-12T00:21:36;12.38;;;10.18;;
21564;SDS011;10943;48.738;9.320;2022-09-12T00:24:06;11.30;;;9.98;;
21564;SDS011;10943;48.738;9.320;2022-09-12T00:26:37;16.00;;;10.75;;
21564;SDS011;10943;48.738;9.320;2022-09-12T00:29:04;13.80;;;10.93;;
21564;SDS011;10943;48.738;9.320;2022-09-12T00:31:32;13.65;;;10.23;;
21564;SDS011;10943;48.738;9.320;2022-09-12T00:34:00;12.77;;;10.30;;
21564;SDS011;10943;48.738;9.320;2022-09-12T00:36:28;11.95;;;9.93;;
21564;SDS011;10943;48.738;9.320;2022-09-12T00:38:57;13.90;;;9.80;;
21564;SDS011;10943;48.738;9.320;2022-09-12T00:41:27;11.50;;;10.02;;
21564;SDS011;10943;48.738;9.320;2022-09-12T00:44:01;13.90;;;10.40;;
21564;SDS011;10943;48.738;9.320;2022-09-12T00:49:49;11.93;;;10.45;;
21564;SDS011;10943;48.738;9.320;2022-09-12T00:55:22;12.43;;;10.00;;
21564;SDS011;10943;48.738;9.320;2022-09-12T00:58:00;14.18;;;10.18;;
21564;SDS011;10943;48.738;9.320;2022-09-12T01:00:45;12.35;;;9.95;;
21564;SDS011;10943;48.738;9.320;2022-09-12T01:03:13;13.10;;;10.07;;
21564;SDS011;10943;48.738;9.320;2022-09-12T01:05:48;14.00;;;10.75;;
21564;SDS011;10943;48.738;9.320;2022-09-12T01:08:28;14.48;;;10.35;;
21564;SDS011;10943;48.738;9.320;2022-09-12T01:11:04;15.13;;;10.55;;
21564;SDS011;10943;48.738;9.320;2022-09-12T01:13:34;12.77;;;10.80;;
21564;SDS011;10943;48.738;9.320;2022-09-12T01:16:03;12.38;;;10.10;;
21564;SDS011;10943;48.738;9.320;2022-09-12T01:29:53;13.65;;;11.35;;
21564;SDS011;10943;48.738;9.320;2022-09-12T01:35:23;13.40;;;11.65;;
21564;SDS011;10943;48.738;9.320;2022-09-12T01:46:42;18.40;;;10.70;;
21564;SDS011;10943;48.738;9.320;2022-09-12T01:49:37;15.02;;;11.20;;
21564;SDS011;10943;48.738;9.320;2022-09-12T01:52:22;14.43;;;10.52;;
21564;SDS011;10943;48.738;9.320;2022-09-12T01:55:28;13.18;;;11.13;;
21564;SDS011;10943;48.738;9.320;2022-09-12T02:00:50;16.13;;;11.93;;
21564;SDS011;10943;48.738;9.320;2022-09-12T02:03:50;15.55;;;11.80;;
21564;SDS011;10943;48.738;9.320;2022-09-12T02:06:30;15.00;;;11.98;;
21564;SDS011;10943;48.738;9.320;2022-09-12T02:09:11;14.18;;;12.10;;
21564;SDS011;10943;48.738;9.320;2022-09-12T02:11:59;16.05;;;12.10;;
21564;SDS011;10943;48.738;9.320;2022-09-12T02:14:33;15.27;;;11.30;;
21564;SDS011;10943;48.738;9.320;2022-09-12T02:17:12;15.10;;;11.52;;
21564;SDS011;10943;48.738;9.320;2022-09-12T02:19:48;15.57;;;11.68;;
21564;SDS011;10943;48.738;9.320;2022-09-12T02:22:26;15.48;;;11.02;;
21564;SDS011;10943;48.738;9.320;2022-09-12T02:24:59;16.55;;;11.77;;
21564;SDS011;10943;48.738;9.320;2022-09-12T02:27:32;16.05;;;11.52;;
21564;SDS011;10943;48.738;9.320;2022-09-12T02:30:11;16.40;;;12.43;;
21564;SDS011;10943;48.738;9.320;2022-09-12T02:32:43;16.08;;;11.15;;
21564;SDS011;10943;48.738;9.320;2022-09-12T02:35:45;15.43;;;11.40;;
21564;SDS011;10943;48.738;9.320;2022-09-12T02:38:24;16.75;;;11.18;;
21564;SDS011;10943;48.738;9.320;2022-09-12T02:41:09;13.55;;;11.40;;
21564;SDS011;10943;48.738;9.320;2022-09-12T02:43:41;13.38;;;11.18;;
21564;SDS011;10943;48.738;9.320;2022-09-12T02:46:09;14.40;;;12.07;;
21564;SDS011;10943;48.738;9.320;2022-09-12T02:48:50;14.48;;;11.23;;
21564;SDS011;10943;48.738;9.320;2022-09-12T02:51:17;14.85;;;11.55;;
21564;SDS011;10943;48.738;9.320;2022-09-12T02:53:54;14.43;;;12.05;;
21564;SDS011;10943;48.738;9.320;2022-09-12T02:56:24;13.90;;;11.27;;
21564;SDS011;10943;48.738;9.320;2022-09-12T02:58:57;14.15;;;11.18;;
21564;SDS011;10943;48.738;9.320;2022-09-12T03:21:50;17.65;;;15.02;;
21564;SDS011;10943;48.738;9.320;2022-09-12T03:27:46;19.58;;;15.18;;
21564;SDS011;10943;48.738;9.320;2022-09-12T03:30:30;17.90;;;14.35;;
21564;SDS011;10943;48.738;9.320;2022-09-12T03:33:09;18.00;;;14.88;;
21564;SDS011;10943;48.738;9.320;2022-09-12T03:35:39;17.30;;;14.00;;
21564;SDS011;10943;48.738;9.320;2022-09-12T03:38:07;17.38;;;14.10;;
21564;SDS011;10943;48.738;9.320;2022-09-12T03:40:36;18.77;;;14.77;;
21564;SDS011;10943;48.738;9.320;2022-09-12T03:43:04;17.27;;;13.75;;
21564;SDS011;10943;48.738;9.320;2022-09-12T03:45:34;17.73;;;13.88;;
21564;SDS011;10943;48.738;9.320;2022-09-12T03:48:03;15.65;;;12.85;;
21564;SDS011;10943;48.738;9.320;2022-09-12T03:50:31;15.40;;;12.82;;
21564;SDS011;10943;48.738;9.320;2022-09-12T03:53:00;16.17;;;12.73;;
21564;SDS011;10943;48.738;9.320;2022-09-12T03:55:29;14.32;;;12.50;;
21564;SDS011;10943;48.738;9.320;2022-09-12T03:58:01;15.18;;;12.25;;
21564;SDS011;10943;48.738;9.320;2022-09-12T04:00:29;14.20;;;11.38;;
21564;SDS011;10943;48.738;9.320;2022-09-12T04:02:56;14.48;;;12.38;;
21564;SDS011;10943;48.738;9.320;2022-09-12T04:05:24;17.58;;;12.20;;
21564;SDS011;10943;48.738;9.320;2022-09-12T04:07:52;16.80;;;12.43;;
21564;SDS011;10943;48.738;9.320;2022-09-12T04:10:19;16.55;;;11.63;;
21564;SDS011;10943;48.738;9.320;2022-09-12T04:12:48;17.15;;;11.70;;
21564;SDS011;10943;48.738;9.320;2022-09-12T04:15:15;17.80;;;13.05;;
21564;SDS011;10943;48.738;9.320;2022-09-12T04:17:42;15.70;;;12.30;;
21564;SDS011;10943;48.738;9.320;2022-09-12T04:20:10;14.40;;;11.85;;
21564;SDS011;10943;48.738;9.320;2022-09-12T04:22:37;15.70;;;12.20;;
21564;SDS011;10943;48.738;9.320;2022-09-12T04:25:05;16.02;;;12.70;;
21564;SDS011;10943;48.738;9.320;2022-09-12T04:27:35;15.10;;;11.70;;
21564;SDS011;10943;48.738;9.320;2022-09-12T04:30:03;16.80;;;11.85;;
21564;SDS011;10943;48.738;9.320;2022-09-12T04:32:34;17.15;;;13.48;;
21564;SDS011;10943;48.738;9.320;2022-09-12T04:35:02;17.50;;;13.23;;
21564;SDS011;10943;48.738;9.320;2022-09-12T04:37:30;17.25;;;14.00;;
21564;SDS011;10943;48.738;9.320;2022-09-12T04:39:57;18.25;;;13.60;;
21564;SDS011;10943;48.738;9.320;2022-09-12T04:42:25;15.55;;;12.93;;
21564;SDS011;10943;48.738;9.320;2022-09-12T04:44:52;16.05;;;12.85;;
21564;SDS011;10943;48.738;9.320;2022-09-12T04:47:20;17.52;;;13.68;;
21564;SDS011;10943;48.738;9.320;2022-09-12T04:49:48;20.48;;;14.80;;
21564;SDS011;10943;48.738;9.320;2022-09-12T04:52:16;17.67;;;14.20;;
21564;SDS011;10943;48.738;9.320;2022-09-12T04:54:43;21.15;;;14.48;;
21564;SDS011;10943;48.738;9.320;2022-09-12T04:57:11;21.08;;;13.43;;
21564;SDS011;10943;48.738;9.320;2022-09-12T04:59:38;18.10;;;13.65;;
21564;SDS011;10943;48.738;9.320;2022-09-12T05:02:08;19.15;;;13.95;;
21564;SDS011;10943;48.738;9.320;2022-09-12T05:04:36;17.23;;;13.40;;
21564;SDS011;10943;48.738;9.320;2022-09-12T05:07:03;17.27;;;13.52;;
21564;SDS011;10943;48.738;9.320;2022-09-12T05:09:31;22.20;;;15.88;;
21564;SDS011;10943;48.738;9.320;2022-09-12T05:11:58;20.90;;;17.35;;
21564;SDS011;10943;48.738;9.320;2022-09-12T05:14:31;20.17;;;15.97;;
21564;SDS011;10943;48.738;9.320;2022-09-12T05:16:59;22.52;;;17.17;;
21564;SDS011;10943;48.738;9.320;2022-09-12T05:19:29;22.67;;;17.58;;
21564;SDS011;10943;48.738;9.320;2022-09-12T05:21:57;23.58;;;17.17;;
21564;SDS011;10943;48.738;9.320;2022-09-12T05:24:25;21.52;;;16.85;;
21564;SDS011;10943;48.738;9.320;2022-09-12T05:26:53;24.20;;;17.23;;
21564;SDS011;10943;48.738;9.320;2022-09-12T05:29:20;24.52;;;16.13;;
21564;SDS011;10943;48.738;9.320;2022-09-12T05:31:47;20.60;;;16.05;;
21564;SDS011;10943;48.738;9.320;2022-09-12T05:34:18;20.13;;;16.13;;
21564;SDS011;10943;48.738;9.320;2022-09-12T05:36:46;19.45;;;14.50;;
21564;SDS011;10943;48.738;9.320;2022-09-12T05:39:14;25.65;;;14.15;;
21564;SDS011;10943;48.738;9.320;2022-09-12T05:41:42;19.17;;;14.32;;
21564;SDS011;10943;48.738;9.320;2022-09-12T05:44:10;18.10;;;13.93;;
21564;SDS011;10943;48.738;9.320;2022-09-12T05:46:40;20.00;;;13.57;;
21564;SDS011;10943;48.738;9.320;2022-09-12T05:49:11;16.80;;;12.95;;
21564;SDS011;10943;48.738;9.320;2022-09-12T05:51:42;18.63;;;14.05;;
21564;SDS011;10943;48.738;9.320;2022-09-12T05:54:12;15.70;;;13.48;;
21564;SDS011;10943;48.738;9.320;2022-09-12T05:56:44;18.10;;;13.20;;
21564;SDS011;10943;48.738;9.320;2022-09-12T05:59:13;17.30;;;13.00;;
21564;SDS011;10943;48.738;9.320;2022-09-12T06:01:46;17.23;;;12.10;;
21564;SDS011;10943;48.738;9.320;2022-09-12T06:04:14;17.67;;;12.95;;
21564;SDS011;10943;48.738;9.320;2022-09-12T06:06:43;16.63;;;12.85;;
21564;SDS011;10943;48.738;9.320;2022-09-12T06:09:12;25.08;;;12.60;;
21564;SDS011;10943;48.738;9.320;2022-09-12T06:11:42;18.95;;;12.50;;
21564;SDS011;10943;48.738;9.320;2022-09-12T06:14:12;18.23;;;12.45;;
21564;SDS011;10943;48.738;9.320;2022-09-12T06:16:43;14.70;;;11.65;;
21564;SDS011;10943;48.738;9.320;2022-09-12T06:19:14;13.52;;;10.73;;
21564;SDS011;10943;48.738;9.320;2022-09-12T06:21:47;13.75;;;10.25;;
21564;SDS011;10943;48.738;9.320;2022-09-12T06:24:15;13.50;;;10.00;;
21564;SDS011;10943;48.738;9.320;2022-09-12T06:26:44;13.75;;;9.98;;
21564;SDS011;10943;48.738;9.320;2022-09-12T06:29:14;14.27;;;9.68;;
21564;SDS011;10943;48.738;9.320;2022-09-12T06:31:43;13.15;;;8.93;;
21564;SDS011;10943;48.738;9.320;2022-09-12T06:34:12;10.48;;;8.63;;
21564;SDS011;10943;48.738;9.320;2022-09-12T06:36:42;11.93;;;8.90;;
21564;SDS011;10943;48.738;9.320;2022-09-12T06:39:14;9.90;;;8.18;;
21564;SDS011;10943;48.738;9.320;2022-09-12T06:41:46;11.32;;;8.35;;
21564;SDS011;10943;48.738;9.320;2022-09-12T06:44:31;12.73;;;9.20;;
21564;SDS011;10943;48.738;9.320;2022-09-12T06:46:58;12.85;;;8.70;;
21564;SDS011;10943;48.738;9.320;2022-09-12T06:49:26;14.27;;;9.60;;
21564;SDS011;10943;48.738;9.320;2022-09-12T06:54:36;13.25;;;8.98;;
21564;SDS011;10943;48.738;9.320;2022-09-12T06:57:04;10.48;;;8.77;;
21564;SDS011;10943;48.738;9.320;2022-09-12T06:59:31;11.85;;;8.55;;
21564;SDS011;10943;48.738;9.320;2022-09-12T07:02:02;14.23;;;7.65;;
21564;SDS011;10943;48.738;9.320;2022-09-12T07:04:31;12.85;;;7.95;;
21564;SDS011;10943;48.738;9.320;2022-09-12T07:07:01;11.27;;;7.70;;
21564;SDS011;10943;48.738;9.320;2022-09-12T07:09:29;9.98;;;6.68;;
21564;SDS011;10943;48.738;9.320;2022-09-12T07:11:56;8.23;;;6.00;;
21564;SDS011;10943;48.738;9.320;2022-09-12T07:14:24;6.80;;;5.03;;
21564;SDS011;10943;48.738;9.320;2022-09-12T07:16:51;7.68;;;5.63;;
21564;SDS011;10943;48.738;9.320;2022-09-12T07:19:19;7.05;;;4.75;;
21564;SDS011;10943;48.738;9.320;2022-09-12T07:21:47;6.35;;;4.30;;
21564;SDS011;10943;48.738;9.320;2022-09-12T07:24:14;6.57;;;4.95;;
21564;SDS011;10943;48.738;9.320;2022-09-12T07:26:42;6.32;;;4.30;;
21564;SDS011;10943;48.738;9.320;2022-09-12T07:29:12;6.20;;;4.78;;
21564;SDS011;10943;48.738;9.320;2022-09-12T07:32:02;6.85;;;4.60;;
21564;SDS011;10943;48.738;9.320;2022-09-12T07:34:32;8.20;;;4.80;;
21564;SDS011;10943;48.738;9.320;2022-09-12T07:37:01;5.88;;;3.67;;
21564;SDS011;10943;48.738;9.320;2022-09-12T07:39:30;6.68;;;4.15;;
21564;SDS011;10943;48.738;9.320;2022-09-12T07:41:58;10.13;;;4.90;;
21564;SDS011;10943;48.738;9.320;2022-09-12T07:44:26;6.22;;;4.93;;
21564;SDS011;10943;48.738;9.320;2022-09-12T07:46:55;5.55;;;4.00;;
21564;SDS011;10943;48.738;9.320;2022-09-12T07:49:23;5.97;;;4.22;;
21564;SDS011;10943;48.738;9.320;2022-09-12T07:51:52;6.72;;;4.15;;
21564;SDS011;10943;48.738;9.320;2022-09-12T07:54:20;5.30;;;3.45;;
21564;SDS011;10943;48.738;9.320;2022-09-12T07:56:48;8.63;;;4.35;;
21564;SDS011;10943;48.738;9.320;2022-09-12T07:59:16;5.18;;;3.80;;
21564;SDS011;10943;48.738;9.320;2022-09-12T08:02:05;5.80;;;4.13;;
21564;SDS011;10943;48.738;9.320;2022-09-12T08:04:46;6.05;;;4.15;;
21564;SDS011;10943;48.738;9.320;2022-09-12T08:08:25;5.35;;;4.15;;
21564;SDS011;10943;48.738;9.320;2022-09-12T08:16:39;5.00;;;3.80;;
21564;SDS011;10943;48.738;9.320;2022-09-12T08:24:57;6.40;;;4.03;;
21564;SDS011;10943;48.738;9.320;2022-09-12T08:27:57;4.85;;;3.80;;
21564;SDS011;10943;48.738;9.320;2022-09-12T08:30:27;5.47;;;3.88;;
21564;SDS011;10943;48.738;9.320;2022-09-12T08:32:55;5.85;;;3.92;;
21564;SDS011;10943;48.738;9.320;2022-09-12T08:35:25;5.30;;;3.90;;
21564;SDS011;10943;48.738;9.320;2022-09-12T08:37:53;7.32;;;3.97;;
21564;SDS011;10943;48.738;9.320;2022-09-12T08:40:25;5.35;;;3.50;;
21564;SDS011;10943;48.738;9.320;2022-09-12T08:42:57;6.13;;;4.22;;
21564;SDS011;10943;48.738;9.320;2022-09-12T08:45:49;8.43;;;4.13;;
21564;SDS011;10943;48.738;9.320;2022-09-12T08:48:35;7.53;;;3.65;;
21564;SDS011;10943;48.738;9.320;2022-09-12T08:51:06;6.72;;;3.90;;
21564;SDS011;10943;48.738;9.320;2022-09-12T08:53:42;6.13;;;3.30;;
21564;SDS011;10943;48.738;9.320;2022-09-12T08:56:16;7.05;;;3.60;;
21564;SDS011;10943;48.738;9.320;2022-09-12T08:58:44;5.13;;;3.35;;
21564;SDS011;10943;48.738;9.320;2022-09-12T09:01:31;6.38;;;3.10;;
21564;SDS011;10943;48.738;9.320;2022-09-12T09:10:45;4.95;;;2.70;;
21564;SDS011;10943;48.738;9.320;2022-09-12T09:13:51;5.75;;;2.67;;
21564;SDS011;10943;48.738;9.320;2022-09-12T09:16:49;5.78;;;2.53;;
21564;SDS011;10943;48.738;9.320;2022-09-12T09:19:30;3.85;;;2.53;;
21564;SDS011;10943;48.738;9.320;2022-09-12T09:22:11;5.80;;;2.60;;
21564;SDS011;10943;48.738;9.320;2022-09-12T09:25:00;4.93;;;2.80;;
21564;SDS011;10943;48.738;9.320;2022-09-12T09:27:42;4.95;;;2.47;;
21564;SDS011;10943;48.738;9.320;2022-09-12T09:30:32;3.83;;;2.42;;
21564;SDS011;10943;48.738;9.320;2022-09-12T09:33:02;4.43;;;2.15;;
21564;SDS011;10943;48.738;9.320;2022-09-12T09:38:33;3.67;;;2.17;;
21564;SDS011;10943;48.738;9.320;2022-09-12T09:44:33;5.00;;;1.90;;
21564;SDS011;10943;48.738;9.320;2022-09-12T09:47:48;3.35;;;1.80;;
21564;SDS011;10943;48.738;9.320;2022-09-12T09:50:30;3.70;;;1.50;;
21564;SDS011;10943;48.738;9.320;2022-09-12T09:53:00;4.22;;;1.80;;
21564;SDS011;10943;48.738;9.320;2022-09-12T09:55:33;3.35;;;1.90;;
21564;SDS011;10943;48.738;9.320;2022-09-12T09:58:10;4.68;;;1.50;;
21564;SDS011;10943;48.738;9.320;2022-09-12T10:00:38;3.92;;;1.80;;
21564;SDS011;10943;48.738;9.320;2022-09-12T10:05:53;4.17;;;1.80;;
21564;SDS011;10943;48.738;9.320;2022-09-12T10:08:28;2.83;;;1.20;;
21564;SDS011;10943;48.738;9.320;2022-09-12T10:11:03;2.85;;;1.40;;
21564;SDS011;10943;48.738;9.320;2022-09-12T10:19:04;3.67;;;1.48;;
21564;SDS011;10943;48.738;9.320;2022-09-12T10:21:44;4.75;;;1.25;;
21564;SDS011;10943;48.738;9.320;2022-09-12T10:24:22;5.20;;;1.48;;
21564;SDS011;10943;48.738;9.320;2022-09-12T10:32:48;3.35;;;1.13;;
21564;SDS011;10943;48.738;9.320;2022-09-12T10:35:27;3.60;;;1.20;;
21564;SDS011;10943;48.738;9.320;2022-09-12T10:38:13;3.63;;;1.55;;
21564;SDS011;10943;48.738;9.320;2022-09-12T10:40:57;4.30;;;1.40;;
21564;SDS011;10943;48.738;9.320;2022-09-12T10:49:11;2.50;;;1.02;;
21564;SDS011;10943;48.738;9.320;2022-09-12T10:52:21;3.50;;;1.05;;
21564;SDS011;10943;48.738;9.320;2022-09-12T10:54:50;2.42;;;0.90;;
21564;SDS011;10943;48.738;9.320;2022-09-12T10:57:27;3.88;;;1.30;;
21564;SDS011;10943;48.738;9.320;2022-09-12T11:00:24;3.03;;;1.20;;
21564;SDS011;10943;48.738;9.320;2022-09-12T11:02:57;3.25;;;1.10;;
21564;SDS011;10943;48.738;9.320;2022-09-12T11:05:52;2.55;;;1.10;;
21564;SDS011;10943;48.738;9.320;2022-09-12T11:08:30;3.22;;;1.38;;
21564;SDS011;10943;48.738;9.320;2022-09-12T11:29:47;1.70;;;0.80;;
21564;SDS011;10943;48.738;9.320;2022-09-12T11:32:31;2.97;;;0.90;;
21564;SDS011;10943;48.738;9.320;2022-09-12T11:35:42;2.50;;;1.02;;
21564;SDS011;10943;48.738;9.320;2022-09-12T11:41:09;2.83;;;0.90;;
21564;SDS011;10943;48.738;9.320;2022-09-12T11:47:07;2.83;;;1.00;;
21564;SDS011;10943;48.738;9.320;2022-09-12T11:52:39;2.85;;;1.20;;
21564;SDS011;10943;48.738;9.320;2022-09-12T11:55:15;2.47;;;1.00;;
21564;SDS011;10943;48.738;9.320;2022-09-12T11:57:55;2.00;;;0.90;;
21564;SDS011;10943;48.738;9.320;2022-09-12T12:00:43;1.98;;;0.75;;
21564;SDS011;10943;48.738;9.320;2022-09-12T12:06:15;2.15;;;0.80;;
21564;SDS011;10943;48.738;9.320;2022-09-12T12:08:55;2.28;;;0.82;;
21564;SDS011;10943;48.738;9.320;2022-09-12T12:11:29;2.67;;;1.00;;
21564;SDS011;10943;48.738;9.320;2022-09-12T12:14:17;3.35;;;1.50;;
21564;SDS011;10943;48.738;9.320;2022-09-12T12:16:56;4.15;;;0.90;;
21564;SDS011;10943;48.738;9.320;2022-09-12T12:19:33;3.80;;;0.95;;
21564;SDS011;10943;48.738;9.320;2022-09-12T12:22:07;2.55;;;0.80;;
21564;SDS011;10943;48.738;9.320;2022-09-12T12:37:59;1.75;;;0.60;;
21564;SDS011;10943;48.738;9.320;2022-09-12T12:40:30;2.85;;;0.80;;
21564;SDS011;10943;48.738;9.320;2022-09-12T12:42:59;1.92;;;0.60;;
21564;SDS011;10943;48.738;9.320;2022-09-12T12:48:14;1.65;;;0.60;;
21564;SDS011;10943;48.738;9.320;2022-09-12T12:50:44;1.30;;;0.60;;
21564;SDS011;10943;48.738;9.320;2022-09-12T13:12:59;2.97;;;0.80;;
21564;SDS011;10943;48.738;9.320;2022-09-12T13:42:52;3.03;;;0.70;;
21564;SDS011;10943;48.738;9.320;2022-09-12T14:39:30;2.72;;;0.98;;
21564;SDS011;10943;48.738;9.320;2022-09-12T15:10:34;2.03;;;0.80;;
21564;SDS011;10943;48.738;9.320;2022-09-12T15:23:42;2.58;;;1.00;;
21564;SDS011;10943;48.738;9.320;2022-09-12T15:27:50;2.70;;;1.05;;
21564;SDS011;10943;48.738;9.320;2022-09-12T15:31:03;2.38;;;0.88;;
21564;SDS011;10943;48.738;9.320;2022-09-12T15:33:59;2.55;;;1.08;;
21564;SDS011;10943;48.738;9.320;2022-09-12T15:37:31;2.67;;;1.10;;
21564;SDS011;10943;48.738;9.320;2022-09-12T15:41:42;6.03;;;3.00;;
21564;SDS011;10943;48.738;9.320;2022-09-12T15:46:13;9.73;;;3.33;;
21564;SDS011;10943;48.738;9.320;2022-09-12T15:48:47;4.95;;;2.25;;
21564;SDS011;10943;48.738;9.320;2022-09-12T15:51:31;4.35;;;1.38;;
21564;SDS011;10943;48.738;9.320;2022-09-12T15:54:03;3.25;;;1.33;;
21564;SDS011;10943;48.738;9.320;2022-09-12T15:56:34;7.20;;;2.42;;
21564;SDS011;10943;48.738;9.320;2022-09-12T15:59:09;4.93;;;1.85;;
21564;SDS011;10943;48.738;9.320;2022-09-12T16:02:19;4.97;;;2.13;;
21564;SDS011;10943;48.738;9.320;2022-09-12T16:05:05;3.42;;;1.40;;
21564;SDS011;10943;48.738;9.320;2022-09-12T16:07:54;5.15;;;2.00;;
21564;SDS011;10943;48.738;9.320;2022-09-12T16:10:23;3.22;;;1.27;;
21564;SDS011;10943;48.738;9.320;2022-09-12T16:12:59;3.78;;;1.15;;
21564;SDS011;10943;48.738;9.320;2022-09-12T16:15:26;2.92;;;1.13;;
21564;SDS011;10943;48.738;9.320;2022-09-12T16:17:55;3.55;;;1.10;;
21564;SDS011;10943;48.738;9.320;2022-09-12T16:20:33;2.30;;;0.95;;
21564;SDS011;10943;48.738;9.320;2022-09-12T16:23:11;2.40;;;1.00;;
21564;SDS011;10943;48.738;9.320;2022-09-12T16:25:45;3.10;;;1.38;;
21564;SDS011;10943;48.738;9.320;2022-09-12T16:28:31;3.00;;;1.02;;
21564;SDS011;10943;48.738;9.320;2022-09-12T16:31:14;2.38;;;1.15;;
21564;SDS011;10943;48.738;9.320;2022-09-12T16:33:49;2.90;;;1.00;;
21564;SDS011;10943;48.738;9.320;2022-09-12T16:36:26;3.85;;;1.23;;
21564;SDS011;10943;48.738;9.320;2022-09-12T16:38:55;2.42;;;1.08;;
21564;SDS011;10943;48.738;9.320;2022-09-12T16:41:29;3.03;;;1.00;;
21564;SDS011;10943;48.738;9.320;2022-09-12T16:44:02;3.60;;;1.00;;
21564;SDS011;10943;48.738;9.320;2022-09-12T16:46:34;5.05;;;1.20;;
21564;SDS011;10943;48.738;9.320;2022-09-12T16:49:09;2.95;;;1.00;;
21564;SDS011;10943;48.738;9.320;2022-09-12T16:51:42;2.65;;;1.23;;
21564;SDS011;10943;48.738;9.320;2022-09-12T16:54:14;4.03;;;1.50;;
21564;SDS011;10943;48.738;9.320;2022-09-12T16:56:43;3.75;;;1.38;;
21564;SDS011;10943;48.738;9.320;2022-09-12T16:59:24;4.70;;;1.98;;
21564;SDS011;10943;48.738;9.320;2022-09-12T17:02:03;5.57;;;1.73;;
21564;SDS011;10943;48.738;9.320;2022-09-12T17:04:40;3.20;;;1.27;;
21564;SDS011;10943;48.738;9.320;2022-09-12T17:07:08;3.78;;;1.45;;
21564;SDS011;10943;48.738;9.320;2022-09-12T17:09:36;4.38;;;1.60;;
21564;SDS011;10943;48.738;9.320;2022-09-12T17:12:04;3.58;;;1.70;;
21564;SDS011;10943;48.738;9.320;2022-09-12T17:14:46;2.78;;;1.30;;
21564;SDS011;10943;48.738;9.320;2022-09-12T17:17:14;3.47;;;1.70;;
21564;SDS011;10943;48.738;9.320;2022-09-12T17:19:41;2.90;;;1.30;;
21564;SDS011;10943;48.738;9.320;2022-09-12T17:22:09;3.13;;;1.45;;
21564;SDS011;10943;48.738;9.320;2022-09-12T17:24:37;4.82;;;1.80;;
21564;SDS011;10943;48.738;9.320;2022-09-12T17:27:06;4.65;;;1.88;;
21564;SDS011;10943;48.738;9.320;2022-09-12T17:29:33;4.18;;;2.05;;
21564;SDS011;10943;48.738;9.320;2022-09-12T17:32:02;4.90;;;2.20;;
21564;SDS011;10943;48.738;9.320;2022-09-12T17:34:30;4.40;;;1.90;;
21564;SDS011;10943;48.738;9.320;2022-09-12T17:36:58;4.32;;;1.70;;
21564;SDS011;10943;48.738;9.320;2022-09-12T17:39:26;4.00;;;1.65;;
21564;SDS011;10943;48.738;9.320;2022-09-12T17:41:54;4.40;;;2.10;;
21564;SDS011;10943;48.738;9.320;2022-09-12T17:44:23;5.57;;;1.90;;
21564;SDS011;10943;48.738;9.320;2022-09-12T17:46:51;5.47;;;2.30;;
21564;SDS011;10943;48.738;9.320;2022-09-12T17:49:18;5.45;;;2.30;;
21564;SDS011;10943;48.738;9.320;2022-09-12T17:51:47;4.55;;;2.40;;
21564;SDS011;10943;48.738;9.320;2022-09-12T17:54:17;4.50;;;2.10;;
21564;SDS011;10943;48.738;9.320;2022-09-12T17:56:47;5.95;;;2.97;;
21564;SDS011;10943;48.738;9.320;2022-09-12T17:59:18;3.95;;;2.00;;
21564;SDS011;10943;48.738;9.320;2022-09-12T18:01:49;3.50;;;1.93;;
21564;SDS011;10943;48.738;9.320;2022-09-12T18:04:38;4.72;;;1.70;;
21564;SDS011;10943;48.738;9.320;2022-09-12T18:07:08;3.30;;;1.80;;
21564;SDS011;10943;48.738;9.320;2022-09-12T18:09:36;3.40;;;1.63;;
21564;SDS011;10943;48.738;9.320;2022-09-12T18:12:11;5.00;;;1.83;;
21564;SDS011;10943;48.738;9.320;2022-09-12T18:14:41;4.65;;;1.98;;
21564;SDS011;10943;48.738;9.320;2022-09-12T18:17:10;3.97;;;2.00;;
21564;SDS011;10943;48.738;9.320;2022-09-12T18:19:38;3.63;;;1.73;;
21564;SDS011;10943;48.738;9.320;2022-09-12T18:22:06;4.72;;;2.03;;
21564;SDS011;10943;48.738;9.320;2022-09-12T18:24:37;5.03;;;2.45;;
21564;SDS011;10943;48.738;9.320;2022-09-12T18:27:06;5.55;;;2.47;;
21564;SDS011;10943;48.738;9.320;2022-09-12T18:29:37;3.70;;;2.08;;
21564;SDS011;10943;48.738;9.320;2022-09-12T18:32:06;4.20;;;2.03;;
21564;SDS011;10943;48.738;9.320;2022-09-12T18:34:38;6.65;;;3.60;;
21564;SDS011;10943;48.738;9.320;2022-09-12T18:37:07;7.68;;;2.83;;
21564;SDS011;10943;48.738;9.320;2022-09-12T18:39:35;4.25;;;2.17;;
21564;SDS011;10943;48.738;9.320;2022-09-12T18:42:05;4.93;;;2.40;;
21564;SDS011;10943;48.738;9.320;2022-09-12T18:44:34;5.60;;;2.40;;
21564;SDS011;10943;48.738;9.320;2022-09-12T18:47:01;6.05;;;2.25;;
21564;SDS011;10943;48.738;9.320;2022-09-12T18:49:29;4.20;;;2.47;;
21564;SDS011;10943;48.738;9.320;2022-09-12T18:51:56;4.65;;;2.53;;
21564;SDS011;10943;48.738;9.320;2022-09-12T18:54:24;4.95;;;2.50;;
21564;SDS011;10943;48.738;9.320;2022-09-12T18:56:52;5.15;;;2.72;;
21564;SDS011;10943;48.738;9.320;2022-09-12T18:59:19;5.65;;;2.80;;
21564;SDS011;10943;48.738;9.320;2022-09-12T19:01:46;5.45;;;2.67;;
21564;SDS011;10943;48.738;9.320;2022-09-12T19:04:15;4.93;;;2.75;;
21564;SDS011;10943;48.738;9.320;2022-09-12T19:06:43;4.22;;;2.90;;
21564;SDS011;10943;48.738;9.320;2022-09-12T19:09:15;5.20;;;2.97;;
21564;SDS011;10943;48.738;9.320;2022-09-12T19:11:46;5.45;;;2.50;;
21564;SDS011;10943;48.738;9.320;2022-09-12T19:14:16;4.40;;;2.58;;
21564;SDS011;10943;48.738;9.320;2022-09-12T19:16:49;6.68;;;2.30;;
21564;SDS011;10943;48.738;9.320;2022-09-12T19:19:18;5.18;;;2.42;;
21564;SDS011;10943;48.738;9.320;2022-09-12T19:21:46;3.50;;;2.25;;
21564;SDS011;10943;48.738;9.320;2022-09-12T19:24:13;8.05;;;2.20;;
21564;SDS011;10943;48.738;9.320;2022-09-12T19:26:42;5.72;;;3.30;;
21564;SDS011;10943;48.738;9.320;2022-09-12T19:29:10;3.88;;;2.28;;
21564;SDS011;10943;48.738;9.320;2022-09-12T19:31:39;4.00;;;2.33;;
21564;SDS011;10943;48.738;9.320;2022-09-12T19:34:07;4.90;;;2.42;;
21564;SDS011;10943;48.738;9.320;2022-09-12T19:36:38;8.30;;;2.70;;
21564;SDS011;10943;48.738;9.320;2022-09-12T19:39:12;4.70;;;2.20;;
21564;SDS011;10943;48.738;9.320;2022-09-12T19:41:42;6.45;;;2.13;;
21564;SDS011;10943;48.738;9.320;2022-09-12T19:44:11;3.58;;;2.08;;
21564;SDS011;10943;48.738;9.320;2022-09-12T19:46:39;7.28;;;2.13;;
21564;SDS011;10943;48.738;9.320;2022-09-12T19:49:10;4.55;;;2.15;;
21564;SDS011;10943;48.738;9.320;2022-09-12T19:51:41;4.65;;;2.50;;
21564;SDS011;10943;48.738;9.320;2022-09-12T19:54:09;5.88;;;2.10;;
21564;SDS011;10943;48.738;9.320;2022-09-12T19:56:37;6.40;;;2.35;;
21564;SDS011;10943;48.738;9.320;2022-09-12T19:59:04;4.97;;;2.20;;
21564;SDS011;10943;48.738;9.320;2022-09-12T20:01:32;4.35;;;2.10;;
21564;SDS011;10943;48.738;9.320;2022-09-12T20:04:02;4.93;;;2.40;;
21564;SDS011;10943;48.738;9.320;2022-09-12T20:06:32;6.00;;;2.65;;
21564;SDS011;10943;48.738;9.320;2022-09-12T20:08:59;4.93;;;2.80;;
21564;SDS011;10943;48.738;9.320;2022-09-12T20:11:27;4.57;;;2.60;;